EWG8EL EDDH-EGLL
Flight info
| Callsign | EWG8EL |
|---|---|
| Flight time | 1h 20m |
| Altitude | 30000 |
| Route | WSN5G WSN N125 ITMIZ DCT ABNED L980 LOGAN |
| Aircraft | A320/M-SDE3FGHIRWY/LB1 |
Departure
| Time | 2026-04-26 18:08 |
|---|---|
| Airport | Hamburg Helmut Schmidt Airport (EDDH) |
Arrival
| Time | 2026-04-26 19:29 |
|---|---|
| Airport | London Heathrow Airport (EGLL) |
| Time | Latitude | Longitude | Altitude | Speed | Heading |
|---|---|---|---|---|---|
| 2026-04-26 17:35 | 53.62926 | 10.00288 | 50 ft | 0 kts | 121° |
| 2026-04-26 17:58 | 53.62927 | 10.00287 | 51 ft | 2 kts | 121° |
| 2026-04-26 17:59 | 53.62945 | 10.00238 | 49 ft | 2 kts | 121° |
| 2026-04-26 17:59 | 53.62954 | 10.00213 | 48 ft | 2 kts | 121° |
| 2026-04-26 17:59 | 53.62963 | 10.00188 | 49 ft | 2 kts | 121° |
| 2026-04-26 17:59 | 53.62975 | 10.00169 | 49 ft | 2 kts | 187° |
| 2026-04-26 18:00 | 53.62983 | 10.00173 | 51 ft | 0 kts | 210° |
| 2026-04-26 18:02 | 53.62952 | 10.00139 | 51 ft | 11 kts | 214° |
| 2026-04-26 18:03 | 53.62882 | 10.00058 | 50 ft | 12 kts | 218° |
| 2026-04-26 18:03 | 53.62843 | 9.99956 | 50 ft | 1 kts | 243° |
| 2026-04-26 18:03 | 53.62842 | 9.99955 | 50 ft | 0 kts | 243° |
| 2026-04-26 18:06 | 53.62830 | 9.99914 | 49 ft | 5 kts | 243° |
| 2026-04-26 18:06 | 53.62813 | 9.99860 | 48 ft | 6 kts | 243° |
| 2026-04-26 18:06 | 53.62815 | 9.99796 | 49 ft | 6 kts | 298° |
| 2026-04-26 18:07 | 53.62856 | 9.99753 | 47 ft | 8 kts | 334° |
| 2026-04-26 18:07 | 53.62914 | 9.99703 | 50 ft | 17 kts | 333° |
| 2026-04-26 18:07 | 53.63237 | 9.99423 | 50 ft | 86 kts | 333° |
| 2026-04-26 18:07 | 53.63670 | 9.99050 | 50 ft | 124 kts | 333° |
| 2026-04-26 18:08 | 53.64900 | 9.98006 | 379 ft | 160 kts | 332° |
| 2026-04-26 18:08 | 53.65953 | 9.97090 | 889 ft | 181 kts | 331° |
| 2026-04-26 18:08 | 53.67129 | 9.96024 | 1397 ft | 202 kts | 331° |
| 2026-04-26 18:08 | 53.68439 | 9.94882 | 1852 ft | 226 kts | 332° |
| 2026-04-26 18:09 | 53.69924 | 9.93609 | 2340 ft | 251 kts | 329° |
| 2026-04-26 18:09 | 53.71222 | 9.91513 | 2856 ft | 269 kts | 296° |
| 2026-04-26 18:09 | 53.71611 | 9.88415 | 3438 ft | 276 kts | 265° |
| 2026-04-26 18:09 | 53.71237 | 9.85253 | 4000 ft | 281 kts | 252° |
| 2026-04-26 18:10 | 53.70551 | 9.82157 | 4572 ft | 282 kts | 248° |
| 2026-04-26 18:10 | 53.69770 | 9.79065 | 4945 ft | 287 kts | 247° |
| 2026-04-26 18:10 | 53.68998 | 9.75951 | 5009 ft | 285 kts | 249° |
| 2026-04-26 18:10 | 53.68280 | 9.72860 | 5013 ft | 285 kts | 250° |
| 2026-04-26 18:11 | 53.67594 | 9.69688 | 5301 ft | 289 kts | 251° |
| 2026-04-26 18:11 | 53.66935 | 9.66487 | 5900 ft | 289 kts | 252° |
| 2026-04-26 18:11 | 53.66288 | 9.63255 | 6534 ft | 293 kts | 253° |
| 2026-04-26 18:11 | 53.65643 | 9.60009 | 7131 ft | 297 kts | 252° |
| 2026-04-26 18:12 | 53.64751 | 9.56829 | 7722 ft | 304 kts | 241° |
| 2026-04-26 18:12 | 53.63527 | 9.53878 | 8343 ft | 309 kts | 237° |
| 2026-04-26 18:12 | 53.62259 | 9.50931 | 8968 ft | 313 kts | 237° |
| 2026-04-26 18:12 | 53.60971 | 9.47936 | 9596 ft | 318 kts | 237° |
| 2026-04-26 18:13 | 53.59666 | 9.44895 | 10090 ft | 321 kts | 238° |
| 2026-04-26 18:13 | 53.58348 | 9.41829 | 10684 ft | 325 kts | 238° |
| 2026-04-26 18:13 | 53.57013 | 9.38729 | 11273 ft | 327 kts | 238° |
| 2026-04-26 18:13 | 53.56124 | 9.36669 | 11675 ft | 329 kts | 238° |
| 2026-04-26 18:14 | 53.54327 | 9.32514 | 12478 ft | 333 kts | 238° |
| 2026-04-26 18:14 | 53.52954 | 9.29336 | 13103 ft | 336 kts | 238° |
| 2026-04-26 18:14 | 53.51571 | 9.26135 | 13741 ft | 340 kts | 238° |
| 2026-04-26 18:14 | 53.50165 | 9.22882 | 14361 ft | 347 kts | 238° |
| 2026-04-26 18:15 | 53.48746 | 9.19606 | 14931 ft | 353 kts | 238° |
| 2026-04-26 18:15 | 53.47289 | 9.16248 | 15526 ft | 358 kts | 237° |
| 2026-04-26 18:15 | 53.45811 | 9.12847 | 16135 ft | 362 kts | 237° |
| 2026-04-26 18:15 | 53.44317 | 9.09408 | 16750 ft | 366 kts | 237° |
| 2026-04-26 18:16 | 53.42802 | 9.05929 | 17384 ft | 370 kts | 237° |
| 2026-04-26 18:16 | 53.39762 | 8.98969 | 18647 ft | 374 kts | 237° |
| 2026-04-26 18:16 | 53.38211 | 8.95437 | 19219 ft | 376 kts | 237° |
| 2026-04-26 18:17 | 53.36665 | 8.91891 | 19795 ft | 377 kts | 239° |
| 2026-04-26 18:17 | 53.35324 | 8.88124 | 20390 ft | 374 kts | 246° |
| 2026-04-26 18:17 | 53.34311 | 8.84129 | 20989 ft | 372 kts | 254° |
| 2026-04-26 18:17 | 53.33623 | 8.80019 | 21600 ft | 370 kts | 259° |
| 2026-04-26 18:18 | 53.33015 | 8.75828 | 22227 ft | 369 kts | 259° |
| 2026-04-26 18:18 | 53.32395 | 8.71641 | 22867 ft | 368 kts | 259° |
| 2026-04-26 18:18 | 53.31774 | 8.67484 | 23526 ft | 367 kts | 259° |
| 2026-04-26 18:18 | 53.31154 | 8.63346 | 24144 ft | 366 kts | 259° |
| 2026-04-26 18:19 | 53.30546 | 8.59287 | 24702 ft | 364 kts | 259° |
| 2026-04-26 18:19 | 53.29931 | 8.55192 | 25275 ft | 362 kts | 259° |
| 2026-04-26 18:19 | 53.29318 | 8.51132 | 25864 ft | 359 kts | 259° |
| 2026-04-26 18:19 | 53.28709 | 8.47096 | 26460 ft | 356 kts | 259° |
| 2026-04-26 18:20 | 53.28107 | 8.43095 | 27078 ft | 353 kts | 259° |
| 2026-04-26 18:20 | 53.27506 | 8.39108 | 27714 ft | 349 kts | 259° |
| 2026-04-26 18:20 | 53.26921 | 8.35240 | 28346 ft | 345 kts | 259° |
| 2026-04-26 18:20 | 53.26722 | 8.33930 | 28563 ft | 344 kts | 259° |
| 2026-04-26 18:21 | 53.25749 | 8.27558 | 29663 ft | 336 kts | 259° |
| 2026-04-26 18:21 | 53.25168 | 8.23753 | 29990 ft | 342 kts | 259° |
| 2026-04-26 18:21 | 53.24572 | 8.19830 | 30032 ft | 353 kts | 259° |
| 2026-04-26 18:21 | 53.23962 | 8.15825 | 30043 ft | 365 kts | 259° |
| 2026-04-26 18:22 | 53.23325 | 8.11651 | 30045 ft | 377 kts | 259° |
| 2026-04-26 18:22 | 53.22663 | 8.07321 | 30043 ft | 388 kts | 259° |
| 2026-04-26 18:22 | 53.21976 | 8.02876 | 30041 ft | 399 kts | 259° |
| 2026-04-26 18:22 | 53.21280 | 7.98394 | 30041 ft | 409 kts | 258° |
| 2026-04-26 18:23 | 53.19814 | 7.88991 | 30041 ft | 427 kts | 258° |
| 2026-04-26 18:23 | 53.18300 | 7.79331 | 30038 ft | 432 kts | 258° |
| 2026-04-26 18:24 | 53.16765 | 7.69629 | 30036 ft | 433 kts | 258° |
| 2026-04-26 18:24 | 53.15229 | 7.59935 | 30036 ft | 432 kts | 258° |
| 2026-04-26 18:25 | 53.13695 | 7.50305 | 30041 ft | 432 kts | 258° |
| 2026-04-26 18:25 | 53.12148 | 7.40628 | 30044 ft | 432 kts | 258° |
| 2026-04-26 18:26 | 53.10600 | 7.31012 | 30039 ft | 432 kts | 258° |
| 2026-04-26 18:26 | 53.09058 | 7.21491 | 30035 ft | 432 kts | 257° |
| 2026-04-26 18:27 | 53.07513 | 7.12007 | 30022 ft | 432 kts | 258° |
| 2026-04-26 18:27 | 53.05922 | 7.02348 | 30039 ft | 432 kts | 258° |
| 2026-04-26 18:28 | 53.04337 | 6.92775 | 30034 ft | 431 kts | 259° |
| 2026-04-26 18:28 | 53.02745 | 6.83139 | 30035 ft | 431 kts | 258° |
| 2026-04-26 18:29 | 53.01151 | 6.73545 | 30320 ft | 433 kts | 258° |
| 2026-04-26 18:29 | 52.99802 | 6.65512 | 30331 ft | 433 kts | 258° |
| 2026-04-26 18:30 | 52.98174 | 6.55859 | 30328 ft | 433 kts | 258° |
| 2026-04-26 18:30 | 52.96544 | 6.46240 | 30324 ft | 433 kts | 258° |
| 2026-04-26 18:31 | 52.94917 | 6.36681 | 30329 ft | 432 kts | 258° |
| 2026-04-26 18:31 | 52.93270 | 6.27054 | 30335 ft | 432 kts | 258° |
| 2026-04-26 18:32 | 52.91616 | 6.17471 | 30329 ft | 432 kts | 258° |
| 2026-04-26 18:32 | 52.89966 | 6.07949 | 30324 ft | 432 kts | 258° |
| 2026-04-26 18:33 | 52.88300 | 5.98339 | 30323 ft | 432 kts | 258° |
| 2026-04-26 18:33 | 52.86632 | 5.88801 | 30320 ft | 432 kts | 258° |
| 2026-04-26 18:34 | 52.84953 | 5.79295 | 30315 ft | 432 kts | 258° |
| 2026-04-26 18:34 | 52.83266 | 5.69740 | 30322 ft | 432 kts | 258° |
| 2026-04-26 18:35 | 52.81568 | 5.60198 | 30318 ft | 433 kts | 257° |
| 2026-04-26 18:35 | 52.79860 | 5.50658 | 30310 ft | 432 kts | 257° |
| 2026-04-26 18:36 | 52.78159 | 5.41168 | 30324 ft | 432 kts | 257° |
| 2026-04-26 18:36 | 52.76442 | 5.31642 | 30323 ft | 432 kts | 257° |
| 2026-04-26 18:37 | 52.74733 | 5.22216 | 30319 ft | 432 kts | 257° |
| 2026-04-26 18:37 | 52.72993 | 5.12681 | 30316 ft | 431 kts | 257° |
| 2026-04-26 18:38 | 52.71253 | 5.03208 | 30318 ft | 431 kts | 257° |
| 2026-04-26 18:38 | 52.69519 | 4.93799 | 30311 ft | 430 kts | 256° |
| 2026-04-26 18:39 | 52.67771 | 4.84340 | 30316 ft | 430 kts | 256° |
| 2026-04-26 18:39 | 52.66016 | 4.74942 | 30298 ft | 429 kts | 256° |
| 2026-04-26 18:40 | 52.64266 | 4.65629 | 30312 ft | 428 kts | 256° |
| 2026-04-26 18:40 | 52.62494 | 4.56233 | 30312 ft | 427 kts | 256° |
| 2026-04-26 18:41 | 52.60745 | 4.46954 | 30312 ft | 427 kts | 256° |
| 2026-04-26 18:41 | 52.58976 | 4.37615 | 30316 ft | 427 kts | 256° |
| 2026-04-26 18:42 | 52.57198 | 4.28281 | 30314 ft | 427 kts | 256° |
| 2026-04-26 18:42 | 52.55415 | 4.19016 | 30314 ft | 427 kts | 256° |
| 2026-04-26 18:43 | 52.53614 | 4.09689 | 30317 ft | 427 kts | 256° |
| 2026-04-26 18:43 | 52.51807 | 4.00365 | 30313 ft | 428 kts | 256° |
| 2026-04-26 18:44 | 52.50008 | 3.91108 | 30310 ft | 427 kts | 255° |
| 2026-04-26 18:44 | 52.48190 | 3.81803 | 30314 ft | 427 kts | 255° |
| 2026-04-26 18:45 | 52.46369 | 3.72525 | 30288 ft | 427 kts | 255° |
| 2026-04-26 18:45 | 52.44544 | 3.63280 | 30298 ft | 428 kts | 254° |
| 2026-04-26 18:46 | 52.42696 | 3.54017 | 30297 ft | 429 kts | 254° |
| 2026-04-26 18:46 | 52.40841 | 3.44706 | 30298 ft | 430 kts | 254° |
| 2026-04-26 18:47 | 52.39002 | 3.35310 | 30303 ft | 433 kts | 254° |
| 2026-04-26 18:47 | 52.37028 | 3.26010 | 30302 ft | 436 kts | 248° |
| 2026-04-26 18:48 | 52.34486 | 3.16980 | 30298 ft | 435 kts | 249° |
| 2026-04-26 18:48 | 52.32081 | 3.07954 | 30295 ft | 435 kts | 249° |
| 2026-04-26 18:49 | 52.29695 | 2.98837 | 30298 ft | 435 kts | 249° |
| 2026-04-26 18:49 | 52.28333 | 2.94406 | 30293 ft | 438 kts | 238° |
| 2026-04-26 18:49 | 52.26305 | 2.90671 | 30293 ft | 443 kts | 223° |
| 2026-04-26 18:50 | 52.23686 | 2.87961 | 30274 ft | 451 kts | 207° |
| 2026-04-26 18:50 | 52.20634 | 2.86568 | 30271 ft | 461 kts | 190° |
| 2026-04-26 18:50 | 52.17432 | 2.86708 | 30271 ft | 470 kts | 172° |
| 2026-04-26 18:50 | 52.14319 | 2.88448 | 30271 ft | 479 kts | 155° |
| 2026-04-26 18:51 | 52.08562 | 2.94027 | 30266 ft | 481 kts | 151° |
| 2026-04-26 18:51 | 52.02755 | 2.99529 | 30265 ft | 481 kts | 160° |
| 2026-04-26 18:52 | 51.99637 | 3.01133 | 30251 ft | 474 kts | 173° |
| 2026-04-26 18:52 | 51.97427 | 3.01551 | 30249 ft | 469 kts | 182° |
| 2026-04-26 18:52 | 51.93199 | 3.00752 | 30251 ft | 459 kts | 200° |
| 2026-04-26 18:52 | 51.90251 | 2.98803 | 30251 ft | 452 kts | 213° |
| 2026-04-26 18:53 | 51.87709 | 2.95942 | 30248 ft | 446 kts | 225° |
| 2026-04-26 18:53 | 51.85606 | 2.92283 | 30248 ft | 441 kts | 237° |
| 2026-04-26 18:53 | 51.84039 | 2.88036 | 30239 ft | 439 kts | 248° |
| 2026-04-26 18:53 | 51.83074 | 2.83440 | 30236 ft | 436 kts | 259° |
| 2026-04-26 18:54 | 51.82417 | 2.73684 | 30239 ft | 436 kts | 266° |
| 2026-04-26 18:54 | 51.81835 | 2.63863 | 30243 ft | 444 kts | 265° |
| 2026-04-26 18:55 | 51.81213 | 2.53834 | 30250 ft | 450 kts | 265° |
| 2026-04-26 18:55 | 51.80584 | 2.43761 | 30249 ft | 450 kts | 265° |
| 2026-04-26 18:56 | 51.79952 | 2.33792 | 30245 ft | 447 kts | 264° |
| 2026-04-26 18:56 | 51.79275 | 2.23789 | 30248 ft | 447 kts | 264° |
| 2026-04-26 18:57 | 51.78691 | 2.15477 | 30227 ft | 447 kts | 264° |
| 2026-04-26 18:57 | 51.77860 | 2.03796 | 30312 ft | 449 kts | 264° |
| 2026-04-26 18:58 | 51.77143 | 1.93776 | 30312 ft | 449 kts | 264° |
| 2026-04-26 18:58 | 51.76420 | 1.83772 | 30312 ft | 450 kts | 264° |
| 2026-04-26 18:59 | 51.75698 | 1.73816 | 30316 ft | 450 kts | 263° |
| 2026-04-26 18:59 | 51.74950 | 1.63729 | 30314 ft | 450 kts | 263° |
| 2026-04-26 19:00 | 51.74236 | 1.53737 | 30099 ft | 448 kts | 264° |
| 2026-04-26 19:00 | 51.73919 | 1.48736 | 29664 ft | 434 kts | 264° |
| 2026-04-26 19:00 | 51.73634 | 1.44095 | 29244 ft | 410 kts | 264° |
| 2026-04-26 19:01 | 51.73358 | 1.39622 | 28834 ft | 388 kts | 264° |
| 2026-04-26 19:01 | 51.73095 | 1.35390 | 28430 ft | 369 kts | 264° |
| 2026-04-26 19:01 | 51.72841 | 1.31358 | 28033 ft | 353 kts | 264° |
| 2026-04-26 19:01 | 51.72592 | 1.27514 | 27640 ft | 338 kts | 264° |
| 2026-04-26 19:02 | 51.72349 | 1.23853 | 27256 ft | 324 kts | 264° |
| 2026-04-26 19:02 | 51.72110 | 1.20313 | 26874 ft | 313 kts | 264° |
| 2026-04-26 19:02 | 51.71874 | 1.16839 | 26494 ft | 308 kts | 264° |
| 2026-04-26 19:02 | 51.71720 | 1.14570 | 26249 ft | 307 kts | 264° |
| 2026-04-26 19:03 | 51.71411 | 1.09987 | 25752 ft | 305 kts | 264° |
| 2026-04-26 19:03 | 51.71182 | 1.06593 | 25390 ft | 303 kts | 264° |
| 2026-04-26 19:03 | 51.70955 | 1.03246 | 25034 ft | 302 kts | 264° |
| 2026-04-26 19:03 | 51.70724 | 0.99888 | 24677 ft | 300 kts | 264° |
| 2026-04-26 19:04 | 51.70492 | 0.96532 | 24330 ft | 299 kts | 264° |
| 2026-04-26 19:04 | 51.70266 | 0.93246 | 23996 ft | 298 kts | 264° |
| 2026-04-26 19:04 | 51.70035 | 0.89906 | 23593 ft | 298 kts | 264° |
| 2026-04-26 19:04 | 51.69805 | 0.86593 | 23191 ft | 297 kts | 264° |
| 2026-04-26 19:05 | 51.69339 | 0.79978 | 22391 ft | 295 kts | 264° |
| 2026-04-26 19:05 | 51.69106 | 0.76738 | 22004 ft | 295 kts | 264° |
| 2026-04-26 19:05 | 51.68869 | 0.73445 | 21618 ft | 295 kts | 264° |
| 2026-04-26 19:06 | 51.68636 | 0.70156 | 21241 ft | 294 kts | 264° |
| 2026-04-26 19:06 | 51.68406 | 0.66873 | 20858 ft | 294 kts | 264° |
| 2026-04-26 19:06 | 51.68177 | 0.63603 | 20486 ft | 294 kts | 264° |
| 2026-04-26 19:06 | 51.67947 | 0.60373 | 20123 ft | 294 kts | 264° |
| 2026-04-26 19:07 | 51.67710 | 0.57109 | 19768 ft | 294 kts | 264° |
| 2026-04-26 19:07 | 51.67471 | 0.53829 | 19397 ft | 294 kts | 264° |
| 2026-04-26 19:07 | 51.67232 | 0.50559 | 19047 ft | 294 kts | 264° |
| 2026-04-26 19:07 | 51.66994 | 0.47278 | 18684 ft | 294 kts | 264° |
| 2026-04-26 19:08 | 51.66755 | 0.44018 | 18251 ft | 289 kts | 264° |
| 2026-04-26 19:08 | 51.66525 | 0.40888 | 17826 ft | 282 kts | 263° |
| 2026-04-26 19:08 | 51.66296 | 0.37791 | 17399 ft | 274 kts | 263° |
| 2026-04-26 19:08 | 51.66073 | 0.34770 | 16981 ft | 267 kts | 263° |
| 2026-04-26 19:09 | 51.65854 | 0.31841 | 16558 ft | 260 kts | 263° |
| 2026-04-26 19:09 | 51.65640 | 0.28976 | 16155 ft | 255 kts | 263° |
| 2026-04-26 19:09 | 51.65428 | 0.26168 | 15751 ft | 250 kts | 263° |
| 2026-04-26 19:09 | 51.65220 | 0.23411 | 15354 ft | 246 kts | 262° |
| 2026-04-26 19:10 | 51.65015 | 0.20697 | 14951 ft | 242 kts | 262° |
| 2026-04-26 19:10 | 51.64818 | 0.18049 | 14569 ft | 240 kts | 262° |
| 2026-04-26 19:10 | 51.64693 | 0.15376 | 14165 ft | 242 kts | 269° |
| 2026-04-26 19:10 | 51.64744 | 0.12565 | 13715 ft | 255 kts | 271° |
| 2026-04-26 19:11 | 51.64823 | 0.09736 | 13241 ft | 256 kts | 271° |
| 2026-04-26 19:11 | 51.64903 | 0.06868 | 12772 ft | 255 kts | 271° |
| 2026-04-26 19:11 | 51.64979 | 0.03983 | 12319 ft | 260 kts | 271° |
| 2026-04-26 19:11 | 51.65049 | 0.01047 | 11844 ft | 263 kts | 271° |
| 2026-04-26 19:12 | 51.65114 | -0.01860 | 11526 ft | 262 kts | 271° |
| 2026-04-26 19:12 | 51.65173 | -0.04776 | 11161 ft | 257 kts | 271° |
| 2026-04-26 19:12 | 51.65228 | -0.07628 | 10715 ft | 252 kts | 271° |
| 2026-04-26 19:12 | 51.65276 | -0.10389 | 10291 ft | 247 kts | 271° |
| 2026-04-26 19:13 | 51.65322 | -0.13148 | 9820 ft | 245 kts | 271° |
| 2026-04-26 19:13 | 51.65367 | -0.15860 | 9352 ft | 243 kts | 271° |
| 2026-04-26 19:13 | 51.65414 | -0.18586 | 8883 ft | 241 kts | 271° |
| 2026-04-26 19:13 | 51.65459 | -0.21330 | 8420 ft | 245 kts | 271° |
| 2026-04-26 19:14 | 51.65504 | -0.24016 | 7970 ft | 242 kts | 271° |
| 2026-04-26 19:14 | 51.65551 | -0.26721 | 7515 ft | 241 kts | 271° |
| 2026-04-26 19:14 | 51.65596 | -0.29425 | 7157 ft | 240 kts | 271° |
| 2026-04-26 19:14 | 51.65610 | -0.30341 | 7084 ft | 242 kts | 271° |
| 2026-04-26 19:15 | 51.65681 | -0.34844 | 6680 ft | 241 kts | 271° |
| 2026-04-26 19:15 | 51.65726 | -0.37550 | 6420 ft | 240 kts | 271° |
| 2026-04-26 19:15 | 51.65769 | -0.40230 | 6122 ft | 239 kts | 271° |
| 2026-04-26 19:15 | 51.65808 | -0.42869 | 5826 ft | 238 kts | 271° |
| 2026-04-26 19:16 | 51.65845 | -0.45525 | 5531 ft | 236 kts | 271° |
| 2026-04-26 19:16 | 51.65880 | -0.48178 | 5245 ft | 235 kts | 270° |
| 2026-04-26 19:16 | 51.65769 | -0.49909 | 5065 ft | 234 kts | 254° |
| 2026-04-26 19:16 | 51.65196 | -0.52361 | 4995 ft | 234 kts | 247° |
| 2026-04-26 19:17 | 51.64563 | -0.54693 | 5001 ft | 235 kts | 246° |
| 2026-04-26 19:17 | 51.63900 | -0.57094 | 5015 ft | 235 kts | 246° |
| 2026-04-26 19:17 | 51.63234 | -0.59500 | 5008 ft | 235 kts | 246° |
| 2026-04-26 19:17 | 51.62567 | -0.61909 | 4999 ft | 235 kts | 246° |
| 2026-04-26 19:18 | 51.61900 | -0.64316 | 5001 ft | 235 kts | 246° |
| 2026-04-26 19:18 | 51.61240 | -0.66696 | 4986 ft | 234 kts | 246° |
| 2026-04-26 19:18 | 51.60572 | -0.69102 | 4741 ft | 234 kts | 246° |
| 2026-04-26 19:18 | 51.59907 | -0.71497 | 4481 ft | 233 kts | 246° |
| 2026-04-26 19:19 | 51.59253 | -0.73849 | 4227 ft | 232 kts | 246° |
| 2026-04-26 19:19 | 51.58594 | -0.76218 | 4023 ft | 231 kts | 246° |
| 2026-04-26 19:19 | 51.57938 | -0.78569 | 3991 ft | 230 kts | 246° |
| 2026-04-26 19:19 | 51.57281 | -0.80926 | 3995 ft | 231 kts | 246° |
| 2026-04-26 19:20 | 51.56620 | -0.83301 | 3996 ft | 233 kts | 246° |
| 2026-04-26 19:20 | 51.56182 | -0.84879 | 3994 ft | 234 kts | 246° |
| 2026-04-26 19:20 | 51.55285 | -0.88040 | 3770 ft | 233 kts | 245° |
| 2026-04-26 19:20 | 51.54626 | -0.90403 | 3535 ft | 229 kts | 246° |
| 2026-04-26 19:21 | 51.53994 | -0.92692 | 3374 ft | 222 kts | 246° |
| 2026-04-26 19:21 | 51.53264 | -0.94824 | 3109 ft | 219 kts | 226° |
| 2026-04-26 19:21 | 51.51999 | -0.96022 | 2981 ft | 208 kts | 189° |
| 2026-04-26 19:21 | 51.50611 | -0.96075 | 2973 ft | 195 kts | 167° |
| 2026-04-26 19:22 | 51.49355 | -0.95356 | 2978 ft | 189 kts | 148° |
| 2026-04-26 19:22 | 51.48371 | -0.94041 | 2983 ft | 186 kts | 128° |
| 2026-04-26 19:22 | 51.47727 | -0.92272 | 3023 ft | 184 kts | 110° |
| 2026-04-26 19:22 | 51.47502 | -0.90258 | 2998 ft | 185 kts | 90° |
| 2026-04-26 19:23 | 51.47516 | -0.88211 | 3004 ft | 184 kts | 89° |
| 2026-04-26 19:23 | 51.47533 | -0.86155 | 2999 ft | 184 kts | 90° |
| 2026-04-26 19:23 | 51.47549 | -0.84101 | 2997 ft | 184 kts | 89° |
| 2026-04-26 19:23 | 51.47563 | -0.82046 | 3000 ft | 184 kts | 89° |
| 2026-04-26 19:24 | 51.47577 | -0.79989 | 2999 ft | 185 kts | 89° |
| 2026-04-26 19:24 | 51.47591 | -0.77937 | 3005 ft | 185 kts | 89° |
| 2026-04-26 19:24 | 51.47617 | -0.73846 | 3005 ft | 184 kts | 89° |
| 2026-04-26 19:25 | 51.47630 | -0.71785 | 2908 ft | 185 kts | 89° |
| 2026-04-26 19:25 | 51.47638 | -0.70414 | 2788 ft | 184 kts | 90° |
| 2026-04-26 19:25 | 51.47654 | -0.67685 | 2470 ft | 181 kts | 90° |
| 2026-04-26 19:25 | 51.47666 | -0.65728 | 2236 ft | 170 kts | 91° |
| 2026-04-26 19:26 | 51.47676 | -0.63885 | 2021 ft | 161 kts | 90° |
| 2026-04-26 19:26 | 51.47685 | -0.62110 | 1822 ft | 159 kts | 90° |
| 2026-04-26 19:26 | 51.47694 | -0.60346 | 1593 ft | 156 kts | 90° |
| 2026-04-26 19:26 | 51.47703 | -0.58650 | 1378 ft | 144 kts | 90° |
| 2026-04-26 19:27 | 51.47710 | -0.57090 | 1190 ft | 137 kts | 90° |
| 2026-04-26 19:27 | 51.47717 | -0.55595 | 1002 ft | 132 kts | 90° |
| 2026-04-26 19:27 | 51.47724 | -0.54127 | 823 ft | 131 kts | 90° |
| 2026-04-26 19:27 | 51.47735 | -0.52666 | 646 ft | 131 kts | 88° |
| 2026-04-26 19:28 | 51.47752 | -0.51225 | 419 ft | 131 kts | 92° |
| 2026-04-26 19:28 | 51.47754 | -0.49756 | 276 ft | 132 kts | 89° |
| 2026-04-26 19:28 | 51.47754 | -0.48295 | 114 ft | 128 kts | 90° |
| 2026-04-26 19:28 | 51.47753 | -0.47036 | 93 ft | 93 kts | 89° |
| 2026-04-26 19:29 | 51.47755 | -0.46269 | 93 ft | 44 kts | 90° |
| 2026-04-26 19:29 | 51.47757 | -0.45872 | 89 ft | 34 kts | 89° |
| 2026-04-26 19:29 | 51.47759 | -0.45519 | 91 ft | 30 kts | 90° |
| 2026-04-26 19:29 | 51.47745 | -0.45226 | 93 ft | 20 kts | 122° |
| 2026-04-26 19:30 | 51.47652 | -0.45176 | 92 ft | 0 kts | 180° |
| 2026-04-26 19:31 | 51.47610 | -0.45175 | 92 ft | 11 kts | 179° |
| 2026-04-26 19:31 | 51.47510 | -0.45139 | 93 ft | 13 kts | 132° |
| 2026-04-26 19:31 | 51.47507 | -0.44950 | 90 ft | 22 kts | 89° |
| 2026-04-26 19:31 | 51.47510 | -0.44711 | 94 ft | 3 kts | 88° |
| 2026-04-26 19:32 | 51.47510 | -0.44710 | 94 ft | 0 kts | 88° |
| 2026-04-26 19:32 | 51.47510 | -0.44703 | 94 ft | 4 kts | 88° |
| 2026-04-26 19:32 | 51.47502 | -0.44616 | 91 ft | 9 kts | 112° |
| 2026-04-26 19:32 | 51.47442 | -0.44559 | 89 ft | 13 kts | 174° |
| 2026-04-26 19:33 | 51.47341 | -0.44555 | 87 ft | 16 kts | 179° |
| 2026-04-26 19:33 | 51.47263 | -0.44554 | 89 ft | 8 kts | 180° |
| 2026-04-26 19:33 | 51.47213 | -0.44554 | 87 ft | 7 kts | 180° |
| 2026-04-26 19:33 | 51.47158 | -0.44553 | 88 ft | 7 kts | 174° |
| 2026-04-26 19:34 | 51.47115 | -0.44528 | 89 ft | 6 kts | 149° |
| 2026-04-26 19:34 | 51.47093 | -0.44498 | 89 ft | 4 kts | 135° |
| 2026-04-26 19:34 | 51.47060 | -0.44474 | 91 ft | 3 kts | 175° |
| 2026-04-26 19:34 | 51.47009 | -0.44509 | 89 ft | 18 kts | 214° |
| 2026-04-26 19:35 | 51.46931 | -0.44557 | 89 ft | 11 kts | 181° |
| 2026-04-26 19:35 | 51.46868 | -0.44556 | 90 ft | 8 kts | 179° |
| 2026-04-26 19:35 | 51.46829 | -0.44580 | 92 ft | 6 kts | 231° |
| 2026-04-26 19:35 | 51.46822 | -0.44640 | 90 ft | 5 kts | 265° |
| 2026-04-26 19:36 | 51.46820 | -0.44681 | 90 ft | 0 kts | 266° |